createdAt,value
2017-10-10T00:00:38.807Z,0.00
2017-10-10T00:01:38.774Z,0.00
2017-10-10T00:02:38.742Z,0.00
2017-10-10T00:03:38.708Z,0.00
2017-10-10T00:04:38.670Z,0.00
2017-10-10T00:05:38.635Z,0.00
2017-10-10T00:06:38.605Z,0.00
2017-10-10T00:07:38.577Z,0.00
2017-10-10T00:08:38.536Z,0.00
2017-10-10T00:09:38.501Z,0.00
2017-10-10T00:10:38.491Z,0.00
2017-10-10T00:11:38.880Z,0.00
2017-10-10T00:12:38.400Z,0.00
2017-10-10T00:13:38.366Z,0.00
2017-10-10T00:14:38.334Z,0.00
2017-10-10T00:15:38.312Z,0.00
2017-10-10T00:16:38.263Z,0.00
2017-10-10T00:17:38.232Z,0.00
2017-10-10T00:18:38.196Z,0.00
2017-10-10T00:19:38.162Z,0.00
2017-10-10T00:20:38.128Z,0.00
2017-10-10T00:21:38.095Z,0.00
2017-10-10T00:22:38.061Z,0.00
2017-10-10T00:23:38.027Z,0.00
2017-10-10T00:24:38.000Z,0.00
2017-10-10T00:25:37.959Z,0.00
2017-10-10T00:26:37.925Z,0.00
2017-10-10T00:27:37.892Z,0.00
2017-10-10T00:28:37.868Z,0.00
2017-10-10T00:29:37.824Z,0.00
2017-10-10T00:30:37.789Z,0.00
2017-10-10T00:31:37.755Z,0.00
2017-10-10T00:32:37.722Z,0.00
2017-10-10T00:33:37.690Z,0.00
2017-10-10T00:34:37.656Z,0.00
2017-10-10T00:35:37.619Z,0.00
2017-10-10T00:36:37.587Z,0.00
2017-10-10T00:37:37.553Z,0.00
2017-10-10T00:38:37.520Z,0.00
2017-10-10T00:39:37.485Z,0.00
2017-10-10T00:40:37.451Z,0.00
2017-10-10T00:41:37.419Z,0.00
2017-10-10T00:42:37.387Z,0.00
2017-10-10T00:43:37.353Z,0.00
2017-10-10T00:44:37.316Z,0.00
2017-10-10T00:45:37.282Z,0.00
2017-10-10T00:46:37.248Z,0.00
2017-10-10T00:47:37.213Z,0.00
2017-10-10T00:48:37.187Z,0.00
2017-10-10T00:49:37.146Z,0.00
2017-10-10T00:50:37.113Z,0.00
2017-10-10T00:51:37.078Z,0.00
2017-10-10T00:52:37.043Z,0.00
2017-10-10T00:53:37.010Z,0.00
2017-10-10T00:54:36.975Z,0.00
2017-10-10T00:55:36.941Z,0.00
2017-10-10T00:56:36.908Z,0.00
2017-10-10T00:57:36.873Z,0.00
2017-10-10T00:58:36.845Z,0.00
2017-10-10T00:59:36.805Z,0.00
2017-10-10T01:00:36.773Z,0.00
2017-10-10T01:01:36.737Z,0.00
2017-10-10T01:02:36.704Z,0.00
2017-10-10T01:03:36.669Z,0.00
2017-10-10T01:04:36.635Z,0.00
2017-10-10T01:05:36.603Z,0.00
2017-10-10T01:06:36.568Z,0.00
2017-10-10T01:07:36.531Z,0.00
2017-10-10T01:08:36.500Z,0.00
2017-10-10T01:09:36.465Z,0.00
2017-10-10T01:10:36.431Z,0.00
2017-10-10T01:11:36.397Z,0.00
2017-10-10T01:12:36.360Z,0.00
2017-10-10T01:13:36.329Z,0.00
2017-10-10T01:14:36.293Z,0.00
2017-10-10T01:15:36.261Z,0.00
2017-10-10T01:16:36.228Z,0.00
2017-10-10T01:17:37.140Z,0.00
2017-10-10T01:18:36.159Z,0.00
2017-10-10T01:19:36.637Z,0.00
2017-10-10T01:20:36.091Z,0.00
2017-10-10T01:21:36.057Z,0.00
2017-10-10T01:22:36.021Z,0.00
2017-10-10T01:23:35.986Z,0.00
2017-10-10T01:24:35.955Z,0.00
2017-10-10T01:25:35.921Z,0.00
2017-10-10T01:26:35.887Z,0.00
2017-10-10T01:27:35.850Z,0.00
2017-10-10T01:28:35.818Z,0.00
2017-10-10T01:29:35.788Z,0.00
2017-10-10T01:30:35.753Z,0.00
2017-10-10T01:31:35.716Z,0.00
2017-10-10T01:32:35.681Z,0.00
2017-10-10T01:33:35.648Z,0.00
2017-10-10T01:34:35.614Z,0.00
2017-10-10T01:35:35.578Z,0.00
2017-10-10T01:36:35.544Z,0.00
2017-10-10T01:37:35.513Z,0.00
2017-10-10T01:38:35.477Z,0.00
2017-10-10T01:39:35.442Z,0.00
2017-10-10T01:40:35.409Z,0.00
2017-10-10T01:41:35.377Z,0.00
2017-10-10T01:42:35.342Z,0.00
2017-10-10T01:43:35.307Z,0.00
2017-10-10T01:44:35.272Z,0.00
2017-10-10T01:45:35.241Z,0.00
2017-10-10T01:46:35.203Z,0.00
2017-10-10T01:47:35.169Z,0.00
2017-10-10T01:48:35.135Z,0.00
2017-10-10T01:49:35.101Z,0.00
2017-10-10T01:50:35.067Z,0.00
2017-10-10T01:51:35.030Z,0.00
2017-10-10T01:52:35.002Z,0.00
2017-10-10T01:53:34.963Z,0.00
2017-10-10T01:54:34.930Z,0.00
2017-10-10T01:55:34.896Z,0.00
2017-10-10T01:56:34.860Z,0.00
2017-10-10T01:57:34.827Z,0.00
2017-10-10T01:58:34.794Z,0.00
2017-10-10T01:59:34.757Z,0.00
2017-10-10T02:00:34.723Z,0.00
2017-10-10T02:01:34.687Z,0.00
2017-10-10T02:02:34.653Z,0.00
2017-10-10T02:03:34.617Z,0.00
2017-10-10T02:04:34.584Z,0.00
2017-10-10T02:05:34.550Z,0.00
2017-10-10T02:06:34.516Z,0.00
2017-10-10T02:07:34.480Z,0.00
2017-10-10T02:08:34.447Z,0.00
2017-10-10T02:09:34.413Z,0.00
2017-10-10T02:10:34.377Z,0.00
2017-10-10T02:11:34.343Z,0.00
2017-10-10T02:12:34.313Z,0.00
2017-10-10T02:13:34.274Z,0.00
2017-10-10T02:14:34.240Z,0.00
2017-10-10T02:15:34.206Z,0.00
2017-10-10T02:16:34.171Z,0.00
2017-10-10T02:17:34.136Z,0.00
2017-10-10T02:18:34.103Z,0.00
2017-10-10T02:19:34.068Z,0.00
2017-10-10T02:20:34.033Z,0.00
2017-10-10T02:21:34.004Z,0.00
2017-10-10T02:22:33.964Z,0.00
2017-10-10T02:23:33.930Z,0.00
2017-10-10T02:24:33.894Z,0.00
2017-10-10T02:25:33.862Z,0.00
2017-10-10T02:26:33.825Z,0.00
2017-10-10T02:27:33.792Z,0.00
2017-10-10T02:28:33.758Z,0.00
2017-10-10T02:29:33.724Z,0.00
2017-10-10T02:30:33.687Z,0.00
2017-10-10T02:31:33.655Z,0.00
2017-10-10T02:32:33.620Z,0.00
2017-10-10T02:33:33.586Z,0.00
2017-10-10T02:34:33.551Z,0.00
2017-10-10T02:35:33.517Z,0.00
2017-10-10T02:36:33.482Z,0.00
2017-10-10T02:37:33.446Z,0.00
2017-10-10T02:38:33.413Z,0.00
2017-10-10T02:39:33.378Z,0.00
2017-10-10T02:40:33.343Z,0.00
2017-10-10T02:41:33.310Z,0.00
2017-10-10T02:42:33.285Z,0.00
2017-10-10T02:43:33.241Z,0.00
2017-10-10T02:44:33.206Z,0.00
2017-10-10T02:45:33.177Z,0.00
2017-10-10T02:46:33.138Z,0.00
2017-10-10T02:47:33.105Z,0.00
2017-10-10T02:48:33.070Z,0.00
2017-10-10T02:49:33.035Z,0.00
2017-10-10T02:50:33.002Z,0.00
2017-10-10T02:51:32.966Z,0.00
2017-10-10T02:52:32.935Z,0.00
2017-10-10T02:53:32.896Z,0.00
2017-10-10T02:54:32.867Z,0.00
2017-10-10T02:55:32.831Z,0.00
2017-10-10T02:56:32.797Z,0.00
2017-10-10T02:57:32.760Z,0.00
2017-10-10T02:58:32.727Z,0.00
2017-10-10T02:59:32.690Z,0.00
2017-10-10T03:00:32.657Z,0.00
2017-10-10T03:01:32.624Z,0.00
2017-10-10T03:02:32.589Z,0.00
2017-10-10T03:03:32.553Z,0.00
2017-10-10T03:04:32.521Z,0.00
2017-10-10T03:05:32.487Z,0.00
2017-10-10T03:06:32.453Z,0.00
2017-10-10T03:07:32.422Z,0.00
2017-10-10T03:08:32.382Z,0.00
2017-10-10T03:09:32.349Z,0.00
2017-10-10T03:10:32.314Z,0.00
2017-10-10T03:11:32.280Z,0.00
2017-10-10T03:12:32.255Z,0.00
2017-10-10T03:13:32.211Z,0.00
2017-10-10T03:14:32.178Z,0.00
2017-10-10T03:15:32.144Z,0.00
2017-10-10T03:16:32.107Z,0.00
2017-10-10T03:17:32.074Z,0.00
2017-10-10T03:18:32.040Z,0.00
2017-10-10T03:19:32.009Z,0.00
2017-10-10T03:20:31.973Z,0.00
2017-10-10T03:21:31.936Z,0.00
2017-10-10T03:22:31.902Z,0.00
2017-10-10T03:23:31.868Z,0.00
2017-10-10T03:24:31.836Z,0.00
2017-10-10T03:25:31.803Z,0.00
2017-10-10T03:26:31.766Z,0.00
2017-10-10T03:27:31.732Z,0.00
2017-10-10T03:28:31.697Z,0.00
2017-10-10T03:29:31.674Z,0.00
2017-10-10T03:30:31.630Z,0.00
2017-10-10T03:31:31.596Z,0.00
2017-10-10T03:32:31.560Z,0.00
2017-10-10T03:33:31.531Z,0.00
2017-10-10T03:34:31.493Z,0.00
2017-10-10T03:35:31.457Z,0.00
2017-10-10T03:36:31.424Z,0.00
2017-10-10T03:37:31.390Z,0.00
2017-10-10T03:38:31.355Z,0.00
2017-10-10T03:39:31.320Z,0.00
2017-10-10T03:40:31.287Z,0.00
2017-10-10T03:41:31.253Z,0.00
2017-10-10T03:42:31.218Z,0.00
2017-10-10T03:43:31.185Z,0.00
2017-10-10T03:44:31.149Z,0.00
2017-10-10T03:45:31.115Z,0.00
2017-10-10T03:46:31.081Z,0.00
2017-10-10T03:47:31.045Z,0.00
2017-10-10T03:48:31.011Z,0.00
2017-10-10T03:49:30.977Z,0.00
2017-10-10T03:50:30.945Z,0.00
2017-10-10T03:51:30.909Z,0.00
2017-10-10T03:52:30.875Z,0.00
2017-10-10T03:53:30.843Z,0.00
2017-10-10T03:54:30.811Z,0.00
2017-10-10T03:55:30.773Z,0.00
2017-10-10T03:56:30.739Z,0.00
2017-10-10T03:57:30.705Z,0.00
2017-10-10T03:58:30.671Z,0.00
2017-10-10T03:59:30.636Z,0.00
2017-10-10T04:00:30.601Z,0.00
2017-10-10T04:01:30.569Z,0.00
2017-10-10T04:02:30.534Z,0.00
2017-10-10T04:03:30.503Z,0.00
2017-10-10T04:04:30.466Z,0.00
2017-10-10T04:05:30.431Z,0.00
2017-10-10T04:06:30.397Z,0.00
2017-10-10T04:07:30.364Z,0.00
2017-10-10T04:08:30.328Z,0.00
2017-10-10T04:09:30.295Z,0.00
2017-10-10T04:10:30.260Z,0.00
2017-10-10T04:11:30.225Z,0.00
2017-10-10T04:12:30.192Z,0.00
2017-10-10T04:13:30.158Z,0.00
2017-10-10T04:14:30.124Z,0.00
2017-10-10T04:15:30.090Z,0.00
2017-10-10T04:16:30.056Z,0.00
2017-10-10T04:17:30.022Z,0.00
2017-10-10T04:18:29.992Z,0.00
2017-10-10T04:19:29.956Z,0.00
2017-10-10T04:20:29.919Z,0.00
2017-10-10T04:21:29.882Z,0.00
2017-10-10T04:22:29.853Z,0.00
2017-10-10T04:23:29.816Z,0.00
2017-10-10T04:24:29.789Z,0.00
2017-10-10T04:25:29.750Z,0.00
2017-10-10T04:26:29.712Z,0.00
2017-10-10T04:27:29.679Z,0.00
2017-10-10T04:28:29.646Z,0.00
2017-10-10T04:29:29.613Z,0.00
2017-10-10T04:30:29.576Z,0.00
2017-10-10T04:31:29.543Z,0.00
2017-10-10T04:32:29.509Z,0.00
2017-10-10T04:33:29.473Z,0.00
2017-10-10T04:34:29.440Z,0.00
2017-10-10T04:35:29.406Z,0.00
2017-10-10T04:36:29.372Z,0.00
2017-10-10T04:37:29.338Z,0.00
2017-10-10T04:38:29.305Z,0.00
2017-10-10T04:39:29.269Z,0.00
2017-10-10T04:40:29.234Z,0.00
2017-10-10T04:41:29.202Z,0.00
2017-10-10T04:42:29.167Z,0.00
2017-10-10T04:43:29.131Z,0.00
2017-10-10T04:44:29.102Z,0.00
2017-10-10T04:45:29.082Z,0.00
2017-10-10T04:46:29.030Z,0.00
2017-10-10T04:47:28.996Z,0.00
2017-10-10T04:48:28.961Z,0.00
2017-10-10T04:49:28.927Z,0.00
2017-10-10T04:50:28.892Z,0.00
2017-10-10T04:51:28.857Z,0.00
2017-10-10T04:52:28.827Z,0.00
2017-10-10T04:53:28.786Z,0.00
2017-10-10T04:54:28.755Z,0.00
2017-10-10T04:55:28.721Z,0.00
2017-10-10T04:56:28.688Z,0.00
2017-10-10T04:57:28.652Z,0.00
2017-10-10T04:58:28.627Z,0.00
2017-10-10T04:59:28.584Z,0.00
2017-10-10T05:00:28.549Z,0.00
2017-10-10T05:01:28.519Z,0.00
2017-10-10T05:02:28.481Z,0.00
2017-10-10T05:03:28.449Z,0.00
2017-10-10T05:04:28.413Z,0.00
2017-10-10T05:05:28.377Z,0.00
2017-10-10T05:06:28.344Z,0.00
2017-10-10T05:07:28.309Z,0.00
2017-10-10T05:08:28.276Z,0.00
2017-10-10T05:09:28.241Z,0.00
2017-10-10T05:10:28.201Z,0.00
2017-10-10T05:11:28.173Z,0.00
2017-10-10T05:12:28.139Z,0.00
2017-10-10T05:13:28.105Z,0.00
2017-10-10T05:14:28.070Z,0.00
2017-10-10T05:15:28.036Z,0.00
2017-10-10T05:16:28.002Z,0.00
2017-10-10T05:17:27.968Z,0.00
2017-10-10T05:18:27.936Z,0.00
2017-10-10T05:19:27.899Z,0.00
2017-10-10T05:20:27.864Z,0.00
2017-10-10T05:21:27.831Z,0.00
2017-10-10T05:22:27.797Z,0.00
2017-10-10T05:23:27.762Z,0.00
2017-10-10T05:24:27.729Z,0.00
2017-10-10T05:25:27.694Z,0.00
2017-10-10T05:26:27.660Z,0.00
2017-10-10T05:27:27.626Z,0.00
2017-10-10T05:28:27.590Z,0.00
2017-10-10T05:29:27.564Z,0.00
2017-10-10T05:30:27.522Z,0.00
2017-10-10T05:31:27.488Z,0.00
2017-10-10T05:32:27.456Z,0.00
2017-10-10T05:33:27.422Z,0.00
2017-10-10T05:34:27.385Z,0.00
2017-10-10T05:35:27.351Z,0.00
2017-10-10T05:36:27.317Z,0.00
2017-10-10T05:37:27.286Z,0.00
2017-10-10T05:38:27.251Z,0.00
2017-10-10T05:39:27.219Z,0.00
2017-10-10T05:40:27.181Z,0.00
2017-10-10T05:41:27.148Z,0.00
2017-10-10T05:42:27.112Z,0.00
2017-10-10T05:43:27.076Z,0.00
2017-10-10T05:44:27.042Z,0.00
2017-10-10T05:45:27.009Z,0.00
2017-10-10T05:46:26.976Z,0.00
2017-10-10T05:47:26.941Z,0.00
2017-10-10T05:48:26.907Z,0.00
2017-10-10T05:49:26.873Z,0.00
2017-10-10T05:50:26.844Z,0.00
2017-10-10T05:51:26.807Z,0.00
2017-10-10T05:52:26.770Z,0.00
2017-10-10T05:53:26.738Z,0.00
2017-10-10T05:54:26.702Z,0.00
2017-10-10T05:55:26.667Z,0.00
2017-10-10T05:56:26.632Z,0.00
2017-10-10T05:57:26.598Z,0.00
2017-10-10T05:58:26.565Z,0.00
2017-10-10T05:59:26.529Z,0.00
2017-10-10T06:00:26.494Z,0.00
2017-10-10T06:01:26.459Z,0.00
2017-10-10T06:02:26.427Z,0.00
2017-10-10T06:03:26.390Z,0.00
2017-10-10T06:04:26.357Z,0.00
2017-10-10T06:05:26.321Z,0.00
2017-10-10T06:06:26.287Z,0.00
2017-10-10T06:07:26.252Z,0.00
2017-10-10T06:08:26.217Z,0.00
2017-10-10T06:09:26.185Z,0.00
2017-10-10T06:10:26.149Z,0.00
2017-10-10T06:11:26.113Z,0.00
2017-10-10T06:12:26.079Z,5.63
2017-10-10T06:13:26.048Z,5.63
2017-10-10T06:14:26.012Z,5.63
2017-10-10T06:15:25.978Z,5.63
2017-10-10T06:16:25.942Z,5.63
2017-10-10T06:17:25.909Z,5.63
2017-10-10T06:18:25.873Z,5.63
2017-10-10T06:19:25.839Z,5.63
2017-10-10T06:20:25.806Z,5.63
2017-10-10T06:21:25.770Z,5.63
2017-10-10T06:22:25.737Z,5.63
2017-10-10T06:23:25.704Z,5.63
2017-10-10T06:24:25.668Z,5.63
2017-10-10T06:25:25.634Z,5.63
2017-10-10T06:26:25.600Z,5.63
2017-10-10T06:27:25.565Z,5.63
2017-10-10T06:28:25.530Z,11.25
2017-10-10T06:29:25.493Z,11.25
2017-10-10T06:30:25.461Z,11.25
2017-10-10T06:31:25.427Z,11.25
2017-10-10T06:32:25.392Z,11.25
2017-10-10T06:33:25.358Z,16.88
2017-10-10T06:34:25.323Z,16.88
2017-10-10T06:35:25.289Z,16.88
2017-10-10T06:36:25.256Z,16.88
2017-10-10T06:37:25.221Z,16.88
2017-10-10T06:38:25.189Z,16.88
2017-10-10T06:39:25.152Z,16.88
2017-10-10T06:40:25.119Z,11.25
2017-10-10T06:41:25.084Z,11.25
2017-10-10T06:42:25.073Z,11.25
2017-10-10T06:43:25.016Z,11.25
2017-10-10T06:44:24.981Z,11.25
2017-10-10T06:45:24.947Z,11.25
2017-10-10T06:46:24.914Z,11.25
2017-10-10T06:47:24.881Z,11.25
2017-10-10T06:48:24.844Z,11.25
2017-10-10T06:49:24.812Z,11.25
2017-10-10T06:50:24.777Z,11.25
2017-10-10T06:51:24.742Z,16.88
2017-10-10T06:52:24.708Z,16.88
2017-10-10T06:53:24.677Z,16.88
2017-10-10T06:54:24.640Z,16.88
2017-10-10T06:55:24.605Z,16.88
2017-10-10T06:56:24.573Z,16.88
2017-10-10T06:57:24.537Z,16.88
2017-10-10T06:58:24.504Z,16.88
2017-10-10T06:59:24.469Z,22.50
2017-10-10T07:00:24.435Z,22.50
2017-10-10T07:01:24.401Z,28.13
2017-10-10T07:02:24.375Z,33.75
2017-10-10T07:03:24.331Z,33.75
2017-10-10T07:04:24.298Z,28.13
2017-10-10T07:05:24.266Z,28.13
2017-10-10T07:06:24.231Z,22.50
2017-10-10T07:07:24.196Z,22.50
2017-10-10T07:08:24.163Z,22.50
2017-10-10T07:09:24.128Z,22.50
2017-10-10T07:10:24.094Z,28.13
2017-10-10T07:11:24.060Z,28.13
2017-10-10T07:12:24.029Z,28.13
2017-10-10T07:13:23.995Z,22.50
2017-10-10T07:14:23.958Z,28.13
2017-10-10T07:15:23.925Z,28.13
2017-10-10T07:16:23.890Z,28.13
2017-10-10T07:17:23.855Z,28.13
2017-10-10T07:18:23.824Z,28.13
2017-10-10T07:19:23.786Z,33.75
2017-10-10T07:20:23.755Z,33.75
2017-10-10T07:21:23.720Z,33.75
2017-10-10T07:22:23.686Z,39.38
2017-10-10T07:23:23.651Z,39.38
2017-10-10T07:24:23.618Z,45.00
2017-10-10T07:25:23.584Z,45.00
2017-10-10T07:26:23.569Z,45.00
2017-10-10T07:27:23.517Z,45.00
2017-10-10T07:28:23.482Z,45.00
2017-10-10T07:29:23.448Z,39.38
2017-10-10T07:30:23.415Z,45.00
2017-10-10T07:31:23.381Z,50.63
2017-10-10T07:32:23.347Z,56.25
2017-10-10T07:33:23.313Z,56.25
2017-10-10T07:34:23.280Z,56.25
2017-10-10T07:35:23.245Z,61.88
2017-10-10T07:36:23.210Z,67.50
2017-10-10T07:37:23.179Z,73.13
2017-10-10T07:38:23.146Z,84.38
2017-10-10T07:39:23.111Z,84.38
2017-10-10T07:40:23.081Z,84.38
2017-10-10T07:41:23.045Z,90.00
2017-10-10T07:42:23.010Z,95.63
2017-10-10T07:43:22.974Z,101.25
2017-10-10T07:44:22.942Z,112.50
2017-10-10T07:45:22.909Z,118.13
2017-10-10T07:46:22.884Z,118.13
2017-10-10T07:47:22.841Z,118.13
2017-10-10T07:48:22.812Z,112.50
2017-10-10T07:49:22.777Z,112.50
2017-10-10T07:50:22.742Z,101.25
2017-10-10T07:51:22.708Z,84.38
2017-10-10T07:52:22.675Z,78.75
2017-10-10T07:53:22.647Z,78.75
2017-10-10T07:54:22.608Z,78.75
2017-10-10T07:55:22.586Z,84.38
2017-10-10T07:56:22.543Z,90.00
2017-10-10T07:57:22.508Z,95.63
2017-10-10T07:58:22.476Z,95.63
2017-10-10T07:59:22.443Z,95.63
2017-10-10T08:00:22.409Z,95.63
2017-10-10T08:01:22.376Z,95.63
2017-10-10T08:02:22.343Z,106.88
2017-10-10T08:03:22.310Z,118.13
2017-10-10T08:04:22.283Z,135.00
2017-10-10T08:05:22.243Z,146.25
2017-10-10T08:06:22.209Z,151.88
2017-10-10T08:07:22.175Z,135.00
2017-10-10T08:08:22.145Z,129.38
2017-10-10T08:09:22.111Z,112.50
2017-10-10T08:10:22.078Z,67.50
2017-10-10T08:11:22.044Z,56.25
2017-10-10T08:12:22.014Z,50.63
2017-10-10T08:13:21.979Z,50.63
2017-10-10T08:14:21.949Z,56.25
2017-10-10T08:15:21.912Z,56.25
2017-10-10T08:16:21.879Z,61.88
2017-10-10T08:17:21.847Z,67.50
2017-10-10T08:18:21.817Z,78.75
2017-10-10T08:19:21.779Z,78.75
2017-10-10T08:20:21.749Z,90.00
2017-10-10T08:21:21.710Z,106.88
2017-10-10T08:22:21.680Z,123.75
2017-10-10T08:23:21.648Z,135.00
2017-10-10T08:24:21.617Z,157.50
2017-10-10T08:25:21.583Z,163.13
2017-10-10T08:26:21.549Z,174.38
2017-10-10T08:27:21.517Z,151.88
2017-10-10T08:28:21.482Z,146.25
2017-10-10T08:29:21.450Z,140.63
2017-10-10T08:30:21.418Z,157.50
2017-10-10T08:31:21.382Z,236.25
2017-10-10T08:32:21.350Z,331.88
2017-10-10T08:33:21.318Z,421.88
2017-10-10T08:34:21.286Z,545.63
2017-10-10T08:35:21.253Z,635.63
2017-10-10T08:36:21.224Z,1653.75
2017-10-10T08:37:21.190Z,675.00
2017-10-10T08:38:21.158Z,1063.13
2017-10-10T08:39:21.125Z,466.88
2017-10-10T08:40:21.099Z,331.88
2017-10-10T08:41:21.063Z,264.38
2017-10-10T08:42:21.032Z,225.00
2017-10-10T08:43:20.998Z,247.50
2017-10-10T08:44:20.969Z,326.25
2017-10-10T08:45:20.938Z,354.38
2017-10-10T08:46:20.908Z,399.38
2017-10-10T08:47:20.874Z,573.75
2017-10-10T08:48:20.843Z,1771.88
2017-10-10T08:49:20.814Z,2250.00
2017-10-10T08:50:20.784Z,2182.50
2017-10-10T08:51:20.758Z,1023.75
2017-10-10T08:52:20.722Z,1361.25
2017-10-10T08:53:20.694Z,326.25
2017-10-10T08:54:20.666Z,202.50
2017-10-10T08:55:20.635Z,135.00
2017-10-10T08:56:20.603Z,118.13
2017-10-10T08:57:20.577Z,123.75
2017-10-10T08:58:20.548Z,123.75
2017-10-10T08:59:20.518Z,106.88
2017-10-10T09:00:20.488Z,95.63
2017-10-10T09:01:20.458Z,95.63
2017-10-10T09:02:20.438Z,95.63
2017-10-10T09:03:20.397Z,106.88
2017-10-10T09:04:20.367Z,106.88
2017-10-10T09:05:20.336Z,90.00
2017-10-10T09:06:20.306Z,78.75
2017-10-10T09:07:20.273Z,78.75
2017-10-10T09:08:20.246Z,78.75
2017-10-10T09:09:20.213Z,84.38
2017-10-10T09:10:20.180Z,84.38
2017-10-10T09:11:20.148Z,78.75
2017-10-10T09:12:20.117Z,78.75
2017-10-10T09:13:20.088Z,78.75
2017-10-10T09:14:20.054Z,78.75
2017-10-10T09:15:20.022Z,78.75
2017-10-10T09:16:19.990Z,78.75
2017-10-10T09:17:19.956Z,73.13
2017-10-10T09:18:19.926Z,73.13
2017-10-10T09:19:19.892Z,73.13
2017-10-10T09:20:19.858Z,73.13
2017-10-10T09:21:19.826Z,73.13
2017-10-10T09:22:19.796Z,78.75
2017-10-10T09:23:19.763Z,78.75
2017-10-10T09:24:19.733Z,73.13
2017-10-10T09:25:19.710Z,73.13
2017-10-10T09:26:19.666Z,78.75
2017-10-10T09:27:19.633Z,84.38
2017-10-10T09:28:19.599Z,84.38
2017-10-10T09:29:19.568Z,84.38
2017-10-10T09:30:19.536Z,90.00
2017-10-10T09:31:19.505Z,90.00
2017-10-10T09:32:19.469Z,90.00
2017-10-10T09:33:19.437Z,84.38
2017-10-10T09:34:19.403Z,78.75
2017-10-10T09:35:19.371Z,78.75
2017-10-10T09:36:19.339Z,73.13
2017-10-10T09:37:19.307Z,67.50
2017-10-10T09:38:19.278Z,67.50
2017-10-10T09:39:19.241Z,67.50
2017-10-10T09:40:19.208Z,73.13
2017-10-10T09:41:19.175Z,73.13
2017-10-10T09:42:19.144Z,67.50
2017-10-10T09:43:19.110Z,73.13
2017-10-10T09:44:19.077Z,73.13
2017-10-10T09:45:19.042Z,73.13
2017-10-10T09:46:19.011Z,78.75
2017-10-10T09:47:18.978Z,90.00
2017-10-10T09:48:18.945Z,95.63
2017-10-10T09:49:18.912Z,101.25
2017-10-10T09:50:18.880Z,106.88
2017-10-10T09:51:18.854Z,118.13
2017-10-10T09:52:18.813Z,123.75
2017-10-10T09:53:18.781Z,135.00
2017-10-10T09:54:18.750Z,140.63
2017-10-10T09:55:18.715Z,151.88
2017-10-10T09:56:18.682Z,151.88
2017-10-10T09:57:18.649Z,151.88
2017-10-10T09:58:18.619Z,140.63
2017-10-10T09:59:18.584Z,140.63
2017-10-10T10:00:18.552Z,146.25
2017-10-10T10:01:18.540Z,168.75
2017-10-10T10:02:18.487Z,185.63
2017-10-10T10:03:18.454Z,191.25
2017-10-10T10:04:18.421Z,196.88
2017-10-10T10:05:18.388Z,213.75
2017-10-10T10:06:18.357Z,230.63
2017-10-10T10:07:18.324Z,236.25
2017-10-10T10:08:18.293Z,230.63
2017-10-10T10:09:18.262Z,230.63
2017-10-10T10:10:18.229Z,219.38
2017-10-10T10:11:18.206Z,213.75
2017-10-10T10:12:18.165Z,208.13
2017-10-10T10:13:18.133Z,219.38
2017-10-10T10:14:18.101Z,230.63
2017-10-10T10:15:18.068Z,253.13
2017-10-10T10:16:18.036Z,264.38
2017-10-10T10:17:18.005Z,270.00
2017-10-10T10:18:17.974Z,275.63
2017-10-10T10:19:17.941Z,292.50
2017-10-10T10:20:17.909Z,309.38
2017-10-10T10:21:17.878Z,315.00
2017-10-10T10:22:17.854Z,309.38
2017-10-10T10:23:17.815Z,286.88
2017-10-10T10:24:17.788Z,286.88
2017-10-10T10:25:17.755Z,281.25
2017-10-10T10:26:17.723Z,286.88
2017-10-10T10:27:17.691Z,281.25
2017-10-10T10:28:17.659Z,320.63
2017-10-10T10:29:17.630Z,303.75
2017-10-10T10:30:17.597Z,348.75
2017-10-10T10:31:17.565Z,320.63
2017-10-10T10:32:17.537Z,461.25
2017-10-10T10:33:17.506Z,292.50
2017-10-10T10:34:17.476Z,253.13
2017-10-10T10:35:17.445Z,230.63
2017-10-10T10:36:17.414Z,230.63
2017-10-10T10:37:17.383Z,236.25
2017-10-10T10:38:17.353Z,247.50
2017-10-10T10:39:17.322Z,270.00
2017-10-10T10:40:17.292Z,286.88
2017-10-10T10:41:17.262Z,315.00
2017-10-10T10:42:17.228Z,382.50
2017-10-10T10:43:17.201Z,438.75
2017-10-10T10:44:17.167Z,483.75
2017-10-10T10:45:17.138Z,489.38
2017-10-10T10:46:17.107Z,534.38
2017-10-10T10:47:17.074Z,540.00
2017-10-10T10:48:17.047Z,540.00
2017-10-10T10:49:17.018Z,500.63
2017-10-10T10:50:16.986Z,489.38
2017-10-10T10:51:16.956Z,506.25
2017-10-10T10:52:16.929Z,540.00
2017-10-10T10:53:16.895Z,540.00
2017-10-10T10:54:16.866Z,528.75
2017-10-10T10:55:16.839Z,506.25
2017-10-10T10:56:16.806Z,725.63
2017-10-10T10:57:16.778Z,382.50
2017-10-10T10:58:16.748Z,348.75
2017-10-10T10:59:16.717Z,315.00
2017-10-10T11:00:16.690Z,320.63
2017-10-10T11:01:16.658Z,315.00
2017-10-10T11:02:16.629Z,292.50
2017-10-10T11:03:16.598Z,292.50
2017-10-10T11:04:16.568Z,298.13
2017-10-10T11:05:16.542Z,298.13
2017-10-10T11:06:16.513Z,343.13
2017-10-10T11:07:16.480Z,495.00
2017-10-10T11:08:16.450Z,506.25
2017-10-10T11:09:16.419Z,348.75
2017-10-10T11:10:16.389Z,241.88
2017-10-10T11:11:16.359Z,208.13
2017-10-10T11:12:16.336Z,213.75
2017-10-10T11:13:16.299Z,219.38
2017-10-10T11:14:16.270Z,213.75
2017-10-10T11:15:16.241Z,208.13
2017-10-10T11:16:16.212Z,219.38
2017-10-10T11:17:16.187Z,230.63
2017-10-10T11:18:16.148Z,236.25
2017-10-10T11:19:16.116Z,241.88
2017-10-10T11:20:16.086Z,241.88
2017-10-10T11:21:16.057Z,253.13
2017-10-10T11:22:16.030Z,253.13
2017-10-10T11:23:15.996Z,236.25
2017-10-10T11:24:15.964Z,275.63
2017-10-10T11:25:15.935Z,270.00
2017-10-10T11:26:15.906Z,320.63
2017-10-10T11:27:15.872Z,371.25
2017-10-10T11:28:15.843Z,585.00
2017-10-10T11:29:15.814Z,810.00
2017-10-10T11:30:15.782Z,472.50
2017-10-10T11:31:15.756Z,500.63
2017-10-10T11:32:15.722Z,658.13
2017-10-10T11:33:15.694Z,742.50
2017-10-10T11:34:15.664Z,506.25
2017-10-10T11:35:15.634Z,675.00
2017-10-10T11:36:15.605Z,511.88
2017-10-10T11:37:15.575Z,556.88
2017-10-10T11:38:15.546Z,748.13
2017-10-10T11:39:15.517Z,1108.13
2017-10-10T11:40:15.489Z,691.88
2017-10-10T11:41:15.461Z,883.13
2017-10-10T11:42:15.438Z,826.88
2017-10-10T11:43:15.402Z,663.75
2017-10-10T11:44:15.380Z,641.25
2017-10-10T11:45:15.350Z,596.25
2017-10-10T11:46:15.321Z,708.75
2017-10-10T11:47:15.294Z,736.88
2017-10-10T11:48:15.268Z,753.75
2017-10-10T11:49:15.243Z,528.75
2017-10-10T11:50:15.215Z,697.50
2017-10-10T11:51:15.188Z,866.25
2017-10-10T11:52:15.163Z,826.88
2017-10-10T11:53:15.158Z,652.50
2017-10-10T11:54:15.110Z,534.38
2017-10-10T11:55:15.085Z,382.50
2017-10-10T11:56:15.059Z,326.25
2017-10-10T11:57:15.035Z,382.50
2017-10-10T11:58:15.009Z,545.63
2017-10-10T11:59:14.980Z,506.25
2017-10-10T12:00:14.955Z,585.00
2017-10-10T12:01:14.930Z,556.88
2017-10-10T12:02:14.899Z,562.50
2017-10-10T12:03:14.880Z,466.88
2017-10-10T12:04:14.846Z,742.50
2017-10-10T12:05:14.822Z,1035.00
2017-10-10T12:06:14.794Z,1203.75
2017-10-10T12:07:14.767Z,2407.50
2017-10-10T12:08:14.742Z,1783.13
2017-10-10T12:09:14.717Z,1828.13
2017-10-10T12:10:14.690Z,2379.38
2017-10-10T12:11:14.666Z,1580.63
2017-10-10T12:12:14.641Z,1732.50
2017-10-10T12:13:14.621Z,810.00
2017-10-10T12:14:14.594Z,1040.63
2017-10-10T12:15:14.568Z,568.13
2017-10-10T12:16:14.544Z,455.63
2017-10-10T12:17:14.520Z,376.88
2017-10-10T12:18:14.494Z,326.25
2017-10-10T12:19:14.469Z,298.13
2017-10-10T12:20:14.447Z,270.00
2017-10-10T12:21:14.417Z,258.75
2017-10-10T12:22:14.395Z,236.25
2017-10-10T12:23:14.364Z,225.00
2017-10-10T12:24:14.338Z,236.25
2017-10-10T12:25:14.311Z,247.50
2017-10-10T12:26:14.283Z,258.75
2017-10-10T12:27:14.254Z,241.88
2017-10-10T12:28:14.227Z,241.88
2017-10-10T12:29:14.199Z,236.25
2017-10-10T12:30:14.190Z,225.00
2017-10-10T12:31:14.141Z,219.38
2017-10-10T12:32:14.113Z,213.75
2017-10-10T12:33:14.084Z,208.13
2017-10-10T12:34:14.070Z,196.88
2017-10-10T12:35:14.028Z,208.13
2017-10-10T12:36:13.996Z,208.13
2017-10-10T12:37:13.967Z,208.13
2017-10-10T12:38:13.938Z,202.50
2017-10-10T12:39:13.907Z,191.25
2017-10-10T12:40:13.878Z,180.00
2017-10-10T12:41:13.849Z,174.38
2017-10-10T12:42:13.817Z,168.75
2017-10-10T12:43:13.788Z,180.00
2017-10-10T12:44:13.760Z,196.88
2017-10-10T12:45:13.728Z,191.25
2017-10-10T12:46:13.697Z,196.88
2017-10-10T12:47:13.668Z,202.50
2017-10-10T12:48:13.639Z,202.50
2017-10-10T12:49:13.608Z,208.13
2017-10-10T12:50:13.578Z,213.75
2017-10-10T12:51:13.543Z,208.13
2017-10-10T12:52:13.516Z,196.88
2017-10-10T12:53:13.485Z,196.88
2017-10-10T12:54:13.455Z,185.63
2017-10-10T12:55:13.423Z,185.63
2017-10-10T12:56:13.393Z,180.00